Terminal Aerodrome Forecast
Issued by NWS

Home | Current Version | Previous Version | Text Only | Print | Product List | Glossary On
Versions: 1 2 3 4 5 6 7 8 9 10 11 12 13 14 15 16 17 18 19 20 21 22 23
000
FTUS45 KGJT 021730
TAFASE
TAF
KASE 021730Z 0218/0318 02004KT P6SM SCT090 BKN150
     FM022000 34010G18KT P6SM VCTS FEW080CB BKN120
     FM030200 19007KT P6SM SCT090 BKN200
     FM031500 02003KT P6SM SCT200=

USA.gov is the U.S. government's official web portal to all federal, state and local government web resources and services.